sensor_id;sensor_type;location;lat;lon;timestamp;temperature;humidity
23717;DHT22;22094;52.130;5.598;2022-12-18T00:00:42;-3.90;99.90
23717;DHT22;22094;52.130;5.598;2022-12-18T00:03:08;-3.90;99.90
23717;DHT22;22094;52.130;5.598;2022-12-18T00:05:33;-3.90;99.90
23717;DHT22;22094;52.130;5.598;2022-12-18T00:07:59;-3.80;99.90
23717;DHT22;22094;52.130;5.598;2022-12-18T00:10:25;-3.80;99.90
23717;DHT22;22094;52.130;5.598;2022-12-18T00:12:50;-3.80;99.90
23717;DHT22;22094;52.130;5.598;2022-12-18T00:15:16;-3.80;99.90
23717;DHT22;22094;52.130;5.598;2022-12-18T00:17:41;-3.70;99.90
23717;DHT22;22094;52.130;5.598;2022-12-18T00:20:08;-3.80;99.90
23717;DHT22;22094;52.130;5.598;2022-12-18T00:22:33;-3.80;99.90
23717;DHT22;22094;52.130;5.598;2022-12-18T00:24:59;-3.80;99.90
23717;DHT22;22094;52.130;5.598;2022-12-18T00:27:25;-3.80;99.90
23717;DHT22;22094;52.130;5.598;2022-12-18T00:29:50;-3.80;99.90
23717;DHT22;22094;52.130;5.598;2022-12-18T00:32:16;-3.80;99.90
23717;DHT22;22094;52.130;5.598;2022-12-18T00:34:42;-3.90;99.90
23717;DHT22;22094;52.130;5.598;2022-12-18T00:37:07;-3.90;99.90
23717;DHT22;22094;52.130;5.598;2022-12-18T00:39:33;-3.90;99.90
23717;DHT22;22094;52.130;5.598;2022-12-18T00:41:58;-3.90;99.90
23717;DHT22;22094;52.130;5.598;2022-12-18T00:44:56;-4.00;99.90
23717;DHT22;22094;52.130;5.598;2022-12-18T00:47:22;-4.00;99.90
23717;DHT22;22094;52.130;5.598;2022-12-18T00:49:47;-4.00;99.90
23717;DHT22;22094;52.130;5.598;2022-12-18T00:52:13;-4.10;99.90
23717;DHT22;22094;52.130;5.598;2022-12-18T00:54:38;-4.10;99.90
23717;DHT22;22094;52.130;5.598;2022-12-18T00:57:04;-4.20;99.90
23717;DHT22;22094;52.130;5.598;2022-12-18T00:59:29;-4.20;99.90
23717;DHT22;22094;52.130;5.598;2022-12-18T01:01:55;-4.30;99.90
23717;DHT22;22094;52.130;5.598;2022-12-18T01:04:21;-4.30;99.90
23717;DHT22;22094;52.130;5.598;2022-12-18T01:06:46;-4.50;99.90
23717;DHT22;22094;52.130;5.598;2022-12-18T01:09:12;-4.60;99.90
23717;DHT22;22094;52.130;5.598;2022-12-18T01:11:38;-4.80;99.90
23717;DHT22;22094;52.130;5.598;2022-12-18T01:14:04;-4.90;99.90
23717;DHT22;22094;52.130;5.598;2022-12-18T01:16:29;-5.00;99.90
23717;DHT22;22094;52.130;5.598;2022-12-18T01:18:55;-5.00;99.90
23717;DHT22;22094;52.130;5.598;2022-12-18T01:21:21;-5.10;99.90
23717;DHT22;22094;52.130;5.598;2022-12-18T01:23:51;-5.10;99.90
23717;DHT22;22094;52.130;5.598;2022-12-18T01:26:17;-5.20;99.90
23717;DHT22;22094;52.130;5.598;2022-12-18T01:28:49;-5.30;99.90
23717;DHT22;22094;52.130;5.598;2022-12-18T01:31:29;-5.50;99.90
23717;DHT22;22094;52.130;5.598;2022-12-18T01:34:04;-5.60;99.90
23717;DHT22;22094;52.130;5.598;2022-12-18T01:36:37;-5.70;99.90
23717;DHT22;22094;52.130;5.598;2022-12-18T01:39:12;-5.30;99.90
23717;DHT22;22094;52.130;5.598;2022-12-18T01:41:38;-5.90;99.90
23717;DHT22;22094;52.130;5.598;2022-12-18T01:44:55;-5.80;99.90
23717;DHT22;22094;52.130;5.598;2022-12-18T01:47:38;-6.10;99.90
23717;DHT22;22094;52.130;5.598;2022-12-18T01:50:09;-6.20;99.90
23717;DHT22;22094;52.130;5.598;2022-12-18T01:52:36;-6.20;99.90
23717;DHT22;22094;52.130;5.598;2022-12-18T01:55:08;-6.20;99.90
23717;DHT22;22094;52.130;5.598;2022-12-18T01:57:38;-5.90;99.90
23717;DHT22;22094;52.130;5.598;2022-12-18T02:00:12;-6.30;99.90
23717;DHT22;22094;52.130;5.598;2022-12-18T02:02:39;-6.30;99.90
23717;DHT22;22094;52.130;5.598;2022-12-18T02:05:05;-5.90;99.90
23717;DHT22;22094;52.130;5.598;2022-12-18T02:08:00;-6.30;99.90
23717;DHT22;22094;52.130;5.598;2022-12-18T02:13:14;-6.30;99.90
23717;DHT22;22094;52.130;5.598;2022-12-18T02:15:59;-6.30;99.90
23717;DHT22;22094;52.130;5.598;2022-12-18T02:18:30;-6.40;99.90
23717;DHT22;22094;52.130;5.598;2022-12-18T02:26:37;-6.40;99.90
23717;DHT22;22094;52.130;5.598;2022-12-18T02:29:13;-6.40;99.90
23717;DHT22;22094;52.130;5.598;2022-12-18T02:31:43;-6.10;99.90
23717;DHT22;22094;52.130;5.598;2022-12-18T02:34:11;-6.40;99.90
23717;DHT22;22094;52.130;5.598;2022-12-18T02:36:40;-6.60;99.90
23717;DHT22;22094;52.130;5.598;2022-12-18T02:39:07;-6.70;99.90
23717;DHT22;22094;52.130;5.598;2022-12-18T02:41:37;-6.80;99.90
23717;DHT22;22094;52.130;5.598;2022-12-18T02:44:08;-6.80;99.90
23717;DHT22;22094;52.130;5.598;2022-12-18T02:46:44;-6.70;99.90
23717;DHT22;22094;52.130;5.598;2022-12-18T02:57:06;-7.00;99.90
23717;DHT22;22094;52.130;5.598;2022-12-18T03:00:12;-7.00;99.90
23717;DHT22;22094;52.130;5.598;2022-12-18T03:05:16;-7.10;99.90
23717;DHT22;22094;52.130;5.598;2022-12-18T03:07:48;-7.20;99.90
23717;DHT22;22094;52.130;5.598;2022-12-18T03:10:19;-7.30;99.90
23717;DHT22;22094;52.130;5.598;2022-12-18T03:12:52;-7.40;99.90
23717;DHT22;22094;52.130;5.598;2022-12-18T03:15:30;-7.10;99.90
23717;DHT22;22094;52.130;5.598;2022-12-18T03:18:12;-7.40;99.90
23717;DHT22;22094;52.130;5.598;2022-12-18T03:20:39;-7.30;99.90
23717;DHT22;22094;52.130;5.598;2022-12-18T03:23:11;-7.40;99.90
23717;DHT22;22094;52.130;5.598;2022-12-18T03:25:41;-7.50;99.90
23717;DHT22;22094;52.130;5.598;2022-12-18T03:28:12;-7.60;99.90
23717;DHT22;22094;52.130;5.598;2022-12-18T03:30:40;-7.60;99.90
23717;DHT22;22094;52.130;5.598;2022-12-18T03:33:25;-7.50;99.90
23717;DHT22;22094;52.130;5.598;2022-12-18T03:35:52;-7.40;99.90
23717;DHT22;22094;52.130;5.598;2022-12-18T03:38:18;-7.30;99.90
23717;DHT22;22094;52.130;5.598;2022-12-18T03:41:05;-7.20;99.90
23717;DHT22;22094;52.130;5.598;2022-12-18T03:46:27;-7.20;99.90
23717;DHT22;22094;52.130;5.598;2022-12-18T03:49:11;-7.30;99.90
23717;DHT22;22094;52.130;5.598;2022-12-18T03:51:48;-7.40;99.90
23717;DHT22;22094;52.130;5.598;2022-12-18T03:54:16;-7.40;99.90
23717;DHT22;22094;52.130;5.598;2022-12-18T03:56:48;-7.40;99.90
23717;DHT22;22094;52.130;5.598;2022-12-18T03:59:17;-7.50;99.90
23717;DHT22;22094;52.130;5.598;2022-12-18T04:01:49;-7.60;99.90
23717;DHT22;22094;52.130;5.598;2022-12-18T04:04:18;-7.60;99.90
23717;DHT22;22094;52.130;5.598;2022-12-18T04:06:45;-7.60;99.90
23717;DHT22;22094;52.130;5.598;2022-12-18T04:09:13;-7.00;99.90
23717;DHT22;22094;52.130;5.598;2022-12-18T04:11:40;-7.80;99.90
23717;DHT22;22094;52.130;5.598;2022-12-18T04:14:06;-7.70;99.90
23717;DHT22;22094;52.130;5.598;2022-12-18T04:16:32;-7.70;99.90
23717;DHT22;22094;52.130;5.598;2022-12-18T04:18:57;-7.70;99.90
23717;DHT22;22094;52.130;5.598;2022-12-18T04:21:23;-7.90;99.90
23717;DHT22;22094;52.130;5.598;2022-12-18T04:23:49;-7.90;99.90
23717;DHT22;22094;52.130;5.598;2022-12-18T04:26:14;-7.90;99.90
23717;DHT22;22094;52.130;5.598;2022-12-18T04:28:40;-7.90;99.90
23717;DHT22;22094;52.130;5.598;2022-12-18T04:31:05;-7.90;99.90
23717;DHT22;22094;52.130;5.598;2022-12-18T04:33:31;-8.10;99.90
23717;DHT22;22094;52.130;5.598;2022-12-18T04:35:56;-8.00;99.90
23717;DHT22;22094;52.130;5.598;2022-12-18T04:38:22;-8.10;99.90
23717;DHT22;22094;52.130;5.598;2022-12-18T04:40:48;-8.10;99.90
23717;DHT22;22094;52.130;5.598;2022-12-18T04:43:13;-8.20;99.90
23717;DHT22;22094;52.130;5.598;2022-12-18T04:45:39;-8.10;99.90
23717;DHT22;22094;52.130;5.598;2022-12-18T04:48:04;-7.80;99.90
23717;DHT22;22094;52.130;5.598;2022-12-18T04:50:30;-8.10;99.90
23717;DHT22;22094;52.130;5.598;2022-12-18T04:52:56;-8.20;99.90
23717;DHT22;22094;52.130;5.598;2022-12-18T04:55:21;-8.20;99.90
23717;DHT22;22094;52.130;5.598;2022-12-18T04:57:50;-8.30;99.90
23717;DHT22;22094;52.130;5.598;2022-12-18T05:00:16;-7.60;99.90
23717;DHT22;22094;52.130;5.598;2022-12-18T05:02:41;-8.40;99.90
23717;DHT22;22094;52.130;5.598;2022-12-18T05:05:07;-8.40;99.90
23717;DHT22;22094;52.130;5.598;2022-12-18T05:07:33;-8.40;99.90
23717;DHT22;22094;52.130;5.598;2022-12-18T05:10:01;-8.40;99.90
23717;DHT22;22094;52.130;5.598;2022-12-18T05:12:26;-8.20;99.90
23717;DHT22;22094;52.130;5.598;2022-12-18T05:14:52;-8.10;99.90
23717;DHT22;22094;52.130;5.598;2022-12-18T05:17:18;-8.00;99.90
23717;DHT22;22094;52.130;5.598;2022-12-18T05:19:43;-7.70;99.90
23717;DHT22;22094;52.130;5.598;2022-12-18T05:22:10;-7.90;99.90
23717;DHT22;22094;52.130;5.598;2022-12-18T05:24:36;-7.90;99.90
23717;DHT22;22094;52.130;5.598;2022-12-18T05:27:02;-7.70;99.90
23717;DHT22;22094;52.130;5.598;2022-12-18T05:29:28;-7.60;99.90
23717;DHT22;22094;52.130;5.598;2022-12-18T05:31:53;-7.60;99.90
23717;DHT22;22094;52.130;5.598;2022-12-18T05:34:19;-7.60;99.90
23717;DHT22;22094;52.130;5.598;2022-12-18T05:36:44;-7.70;99.90
23717;DHT22;22094;52.130;5.598;2022-12-18T05:39:10;-7.90;99.90
23717;DHT22;22094;52.130;5.598;2022-12-18T05:41:36;-7.90;99.90
23717;DHT22;22094;52.130;5.598;2022-12-18T05:44:01;-8.20;99.90
23717;DHT22;22094;52.130;5.598;2022-12-18T05:46:27;-8.20;99.90
23717;DHT22;22094;52.130;5.598;2022-12-18T05:48:52;-8.30;99.90
23717;DHT22;22094;52.130;5.598;2022-12-18T05:51:20;-8.40;99.90
23717;DHT22;22094;52.130;5.598;2022-12-18T05:53:46;-8.40;99.90
23717;DHT22;22094;52.130;5.598;2022-12-18T05:56:17;-8.40;99.90
23717;DHT22;22094;52.130;5.598;2022-12-18T05:58:43;-8.40;99.90
23717;DHT22;22094;52.130;5.598;2022-12-18T06:01:18;-8.50;99.90
23717;DHT22;22094;52.130;5.598;2022-12-18T06:03:44;-8.40;99.90
23717;DHT22;22094;52.130;5.598;2022-12-18T06:06:16;-8.40;99.90
23717;DHT22;22094;52.130;5.598;2022-12-18T06:08:42;-8.50;99.90
23717;DHT22;22094;52.130;5.598;2022-12-18T06:11:08;-8.50;99.90
23717;DHT22;22094;52.130;5.598;2022-12-18T06:13:33;-8.60;99.90
23717;DHT22;22094;52.130;5.598;2022-12-18T06:16:02;-8.60;99.90
23717;DHT22;22094;52.130;5.598;2022-12-18T06:18:28;-8.60;99.90
23717;DHT22;22094;52.130;5.598;2022-12-18T06:20:55;-8.40;99.90
23717;DHT22;22094;52.130;5.598;2022-12-18T06:23:21;-8.40;99.90
23717;DHT22;22094;52.130;5.598;2022-12-18T06:25:47;-8.10;99.90
23717;DHT22;22094;52.130;5.598;2022-12-18T06:28:12;-8.50;99.90
23717;DHT22;22094;52.130;5.598;2022-12-18T06:30:38;-8.60;99.90
23717;DHT22;22094;52.130;5.598;2022-12-18T06:33:03;-8.60;99.90
23717;DHT22;22094;52.130;5.598;2022-12-18T06:35:29;-8.50;99.90
23717;DHT22;22094;52.130;5.598;2022-12-18T06:37:54;-8.40;99.90
23717;DHT22;22094;52.130;5.598;2022-12-18T06:40:20;-8.40;99.90
23717;DHT22;22094;52.130;5.598;2022-12-18T06:42:46;-8.40;99.90
23717;DHT22;22094;52.130;5.598;2022-12-18T06:45:11;-8.50;99.90
23717;DHT22;22094;52.130;5.598;2022-12-18T06:47:40;-8.60;99.90
23717;DHT22;22094;52.130;5.598;2022-12-18T06:50:06;-8.60;99.90
23717;DHT22;22094;52.130;5.598;2022-12-18T06:52:32;-8.40;99.90
23717;DHT22;22094;52.130;5.598;2022-12-18T06:54:58;-8.60;99.90
23717;DHT22;22094;52.130;5.598;2022-12-18T06:57:23;-8.60;99.90
23717;DHT22;22094;52.130;5.598;2022-12-18T06:59:49;-8.60;99.90
23717;DHT22;22094;52.130;5.598;2022-12-18T07:02:14;-8.70;99.90
23717;DHT22;22094;52.130;5.598;2022-12-18T07:04:40;-8.70;99.90
23717;DHT22;22094;52.130;5.598;2022-12-18T07:07:05;-8.70;99.90
23717;DHT22;22094;52.130;5.598;2022-12-18T07:09:31;-8.70;99.90
23717;DHT22;22094;52.130;5.598;2022-12-18T07:11:57;-8.50;99.90
23717;DHT22;22094;52.130;5.598;2022-12-18T07:14:22;-8.50;99.90
23717;DHT22;22094;52.130;5.598;2022-12-18T07:16:48;-8.40;99.90
23717;DHT22;22094;52.130;5.598;2022-12-18T07:19:14;-8.30;99.90
23717;DHT22;22094;52.130;5.598;2022-12-18T07:21:39;-8.30;99.90
23717;DHT22;22094;52.130;5.598;2022-12-18T07:24:05;-8.30;99.90
23717;DHT22;22094;52.130;5.598;2022-12-18T07:26:31;-8.40;99.90
23717;DHT22;22094;52.130;5.598;2022-12-18T07:28:57;-8.30;99.90
23717;DHT22;22094;52.130;5.598;2022-12-18T07:31:24;-8.30;99.90
23717;DHT22;22094;52.130;5.598;2022-12-18T07:33:51;-8.40;99.90
23717;DHT22;22094;52.130;5.598;2022-12-18T07:36:16;-8.40;99.90
23717;DHT22;22094;52.130;5.598;2022-12-18T07:38:42;-8.40;99.90
23717;DHT22;22094;52.130;5.598;2022-12-18T07:41:12;-8.30;99.90
23717;DHT22;22094;52.130;5.598;2022-12-18T07:43:39;-8.30;99.90
23717;DHT22;22094;52.130;5.598;2022-12-18T07:46:05;-8.10;99.90
23717;DHT22;22094;52.130;5.598;2022-12-18T07:48:31;-7.90;99.90
23717;DHT22;22094;52.130;5.598;2022-12-18T07:51:01;-7.90;99.90
23717;DHT22;22094;52.130;5.598;2022-12-18T07:53:27;-7.70;99.90
23717;DHT22;22094;52.130;5.598;2022-12-18T07:56:00;-7.40;99.90
23717;DHT22;22094;52.130;5.598;2022-12-18T07:58:28;-7.30;99.90
23717;DHT22;22094;52.130;5.598;2022-12-18T08:00:53;-7.00;99.90
23717;DHT22;22094;52.130;5.598;2022-12-18T08:03:19;-5.90;99.90
23717;DHT22;22094;52.130;5.598;2022-12-18T08:05:45;-7.00;99.90
23717;DHT22;22094;52.130;5.598;2022-12-18T08:08:10;-6.90;99.90
23717;DHT22;22094;52.130;5.598;2022-12-18T08:10:37;-6.80;99.90
23717;DHT22;22094;52.130;5.598;2022-12-18T08:13:03;-6.00;99.90
23717;DHT22;22094;52.130;5.598;2022-12-18T08:17:56;-5.60;99.90
23717;DHT22;22094;52.130;5.598;2022-12-18T08:20:22;-5.90;99.90
23717;DHT22;22094;52.130;5.598;2022-12-18T08:22:48;-6.20;99.90
23717;DHT22;22094;52.130;5.598;2022-12-18T08:27:39;-6.00;99.90
23717;DHT22;22094;52.130;5.598;2022-12-18T08:30:05;-5.50;99.90
23717;DHT22;22094;52.130;5.598;2022-12-18T08:32:31;-5.70;99.90
23717;DHT22;22094;52.130;5.598;2022-12-18T08:34:58;-5.40;99.90
23717;DHT22;22094;52.130;5.598;2022-12-18T08:37:24;-5.10;99.90
23717;DHT22;22094;52.130;5.598;2022-12-18T08:39:49;-5.50;99.90
23717;DHT22;22094;52.130;5.598;2022-12-18T08:42:15;-8.10;99.90
23717;DHT22;22094;52.130;5.598;2022-12-18T08:47:25;-7.80;99.90
23717;DHT22;22094;52.130;5.598;2022-12-18T08:49:51;-4.20;99.90
23717;DHT22;22094;52.130;5.598;2022-12-18T08:52:16;-3.70;99.90
23717;DHT22;22094;52.130;5.598;2022-12-18T08:57:08;-3.00;99.90
23717;DHT22;22094;52.130;5.598;2022-12-18T09:01:59;-6.50;99.90
23717;DHT22;22094;52.130;5.598;2022-12-18T09:06:51;-2.90;99.90
23717;DHT22;22094;52.130;5.598;2022-12-18T09:09:21;-1.60;99.90
23717;DHT22;22094;52.130;5.598;2022-12-18T09:11:46;-3.20;99.90
23717;DHT22;22094;52.130;5.598;2022-12-18T09:14:12;-3.00;99.90
23717;DHT22;22094;52.130;5.598;2022-12-18T09:16:37;-1.10;99.90
23717;DHT22;22094;52.130;5.598;2022-12-18T09:19:04;-4.00;99.90
23717;DHT22;22094;52.130;5.598;2022-12-18T09:21:34;-3.90;99.90
23717;DHT22;22094;52.130;5.598;2022-12-18T09:24:05;-1.30;99.90
23717;DHT22;22094;52.130;5.598;2022-12-18T09:26:30;-4.00;99.90
23717;DHT22;22094;52.130;5.598;2022-12-18T09:31:23;-3.70;99.90
23717;DHT22;22094;52.130;5.598;2022-12-18T09:33:50;-3.50;99.90
23717;DHT22;22094;52.130;5.598;2022-12-18T09:36:16;-3.30;99.90
23717;DHT22;22094;52.130;5.598;2022-12-18T09:38:43;-5.40;99.90
23717;DHT22;22094;52.130;5.598;2022-12-18T09:43:55;-0.50;99.90
23717;DHT22;22094;52.130;5.598;2022-12-18T09:46:27;-1.20;99.90
23717;DHT22;22094;52.130;5.598;2022-12-18T09:48:57;-3.20;99.90
23717;DHT22;22094;52.130;5.598;2022-12-18T09:51:32;-2.00;99.90
23717;DHT22;22094;52.130;5.598;2022-12-18T09:54:05;-1.00;99.90
23717;DHT22;22094;52.130;5.598;2022-12-18T09:56:35;-3.00;99.90
23717;DHT22;22094;52.130;5.598;2022-12-18T09:59:03;-2.80;99.90
23717;DHT22;22094;52.130;5.598;2022-12-18T10:01:31;-2.80;99.90
23717;DHT22;22094;52.130;5.598;2022-12-18T10:03:57;-5.60;99.90
23717;DHT22;22094;52.130;5.598;2022-12-18T10:06:58;-0.30;99.90
23717;DHT22;22094;52.130;5.598;2022-12-18T10:12:08;-0.30;99.90
23717;DHT22;22094;52.130;5.598;2022-12-18T10:14:51;-2.30;99.90
23717;DHT22;22094;52.130;5.598;2022-12-18T10:17:45;-1.30;99.90
23717;DHT22;22094;52.130;5.598;2022-12-18T10:20:35;-0.70;99.90
23717;DHT22;22094;52.130;5.598;2022-12-18T10:25:55;-2.90;99.90
23717;DHT22;22094;52.130;5.598;2022-12-18T10:28:22;-0.70;99.90
23717;DHT22;22094;52.130;5.598;2022-12-18T10:30:48;-2.10;99.90
23717;DHT22;22094;52.130;5.598;2022-12-18T10:33:18;-2.40;99.90
23717;DHT22;22094;52.130;5.598;2022-12-18T10:35:45;-0.50;99.90
23717;DHT22;22094;52.130;5.598;2022-12-18T10:46:17;1.40;99.90
23717;DHT22;22094;52.130;5.598;2022-12-18T10:51:30;-0.30;99.90
23717;DHT22;22094;52.130;5.598;2022-12-18T10:54:21;-3.90;99.90
23717;DHT22;22094;52.130;5.598;2022-12-18T10:56:47;-1.50;99.90
23717;DHT22;22094;52.130;5.598;2022-12-18T10:59:16;-1.60;99.90
23717;DHT22;22094;52.130;5.598;2022-12-18T11:01:52;-2.70;99.90
23717;DHT22;22094;52.130;5.598;2022-12-18T11:04:29;0.50;99.90
23717;DHT22;22094;52.130;5.598;2022-12-18T11:06:59;-2.60;99.90
23717;DHT22;22094;52.130;5.598;2022-12-18T11:09:32;1.80;99.90
23717;DHT22;22094;52.130;5.598;2022-12-18T11:12:04;1.00;99.90
23717;DHT22;22094;52.130;5.598;2022-12-18T11:14:35;-1.60;99.90
23717;DHT22;22094;52.130;5.598;2022-12-18T11:17:21;-0.10;99.90
23717;DHT22;22094;52.130;5.598;2022-12-18T11:19:58;-2.30;99.90
23717;DHT22;22094;52.130;5.598;2022-12-18T11:22:32;-1.20;99.90
23717;DHT22;22094;52.130;5.598;2022-12-18T11:25:05;-1.00;99.90
23717;DHT22;22094;52.130;5.598;2022-12-18T11:27:32;-1.10;99.90
23717;DHT22;22094;52.130;5.598;2022-12-18T11:33:05;-1.30;99.90
23717;DHT22;22094;52.130;5.598;2022-12-18T11:35:54;2.20;99.90
23717;DHT22;22094;52.130;5.598;2022-12-18T11:38:24;-1.50;99.90
23717;DHT22;22094;52.130;5.598;2022-12-18T11:42:04;1.30;99.90
23717;DHT22;22094;52.130;5.598;2022-12-18T11:47:26;-0.30;99.90
23717;DHT22;22094;52.130;5.598;2022-12-18T11:49:56;2.10;99.90
23717;DHT22;22094;52.130;5.598;2022-12-18T11:52:28;1.30;99.90
23717;DHT22;22094;52.130;5.598;2022-12-18T11:55:00;-2.40;99.90
23717;DHT22;22094;52.130;5.598;2022-12-18T11:57:58;-0.60;99.90
23717;DHT22;22094;52.130;5.598;2022-12-18T12:00:25;-1.20;99.90
23717;DHT22;22094;52.130;5.598;2022-12-18T12:13:38;-0.40;99.90
23717;DHT22;22094;52.130;5.598;2022-12-18T12:27:18;-0.30;99.90
23717;DHT22;22094;52.130;5.598;2022-12-18T12:29:54;0.20;99.90
23717;DHT22;22094;52.130;5.598;2022-12-18T12:32:38;-0.50;99.90
23717;DHT22;22094;52.130;5.598;2022-12-18T12:35:32;-1.60;99.90
23717;DHT22;22094;52.130;5.598;2022-12-18T12:38:13;2.80;99.90
23717;DHT22;22094;52.130;5.598;2022-12-18T12:41:08;1.10;99.90
23717;DHT22;22094;52.130;5.598;2022-12-18T12:43:57;0.00;99.90
23717;DHT22;22094;52.130;5.598;2022-12-18T12:46:25;-0.20;99.90
23717;DHT22;22094;52.130;5.598;2022-12-18T12:49:02;0.10;99.90
23717;DHT22;22094;52.130;5.598;2022-12-18T12:51:38;1.40;99.90
23717;DHT22;22094;52.130;5.598;2022-12-18T12:54:12;3.10;99.90
23717;DHT22;22094;52.130;5.598;2022-12-18T12:57:05;-0.40;99.90
23717;DHT22;22094;52.130;5.598;2022-12-18T13:02:35;1.30;99.90
23717;DHT22;22094;52.130;5.598;2022-12-18T13:08:03;2.80;99.90
23717;DHT22;22094;52.130;5.598;2022-12-18T13:10:37;0.70;99.90
23717;DHT22;22094;52.130;5.598;2022-12-18T13:13:08;2.50;99.90
23717;DHT22;22094;52.130;5.598;2022-12-18T13:15:43;0.80;99.90
23717;DHT22;22094;52.130;5.598;2022-12-18T13:20:49;0.30;99.90
23717;DHT22;22094;52.130;5.598;2022-12-18T13:25:45;2.00;99.90
23717;DHT22;22094;52.130;5.598;2022-12-18T13:31:13;2.00;99.90
23717;DHT22;22094;52.130;5.598;2022-12-18T13:33:44;-2.00;99.90
23717;DHT22;22094;52.130;5.598;2022-12-18T13:38:47;-1.80;99.90
23717;DHT22;22094;52.130;5.598;2022-12-18T13:41:33;2.50;99.90
23717;DHT22;22094;52.130;5.598;2022-12-18T13:47:00;2.10;99.90
23717;DHT22;22094;52.130;5.598;2022-12-18T13:54:37;0.00;99.90
23717;DHT22;22094;52.130;5.598;2022-12-18T13:57:05;1.80;99.90
23717;DHT22;22094;52.130;5.598;2022-12-18T14:02:07;0.40;99.90
23717;DHT22;22094;52.130;5.598;2022-12-18T14:04:35;2.60;99.90
23717;DHT22;22094;52.130;5.598;2022-12-18T14:07:28;0.20;99.90
23717;DHT22;22094;52.130;5.598;2022-12-18T14:10:00;-0.10;99.90
23717;DHT22;22094;52.130;5.598;2022-12-18T14:12:31;-0.30;99.90
23717;DHT22;22094;52.130;5.598;2022-12-18T14:20:18;1.30;99.90
23717;DHT22;22094;52.130;5.598;2022-12-18T14:22:45;-0.20;99.90
23717;DHT22;22094;52.130;5.598;2022-12-18T14:25:23;-0.20;99.90
23717;DHT22;22094;52.130;5.598;2022-12-18T14:28:02;-0.10;99.90
23717;DHT22;22094;52.130;5.598;2022-12-18T14:30:34;-0.10;99.90
23717;DHT22;22094;52.130;5.598;2022-12-18T14:35:40;-0.10;99.90
23717;DHT22;22094;52.130;5.598;2022-12-18T14:40:42;0.10;99.90
23717;DHT22;22094;52.130;5.598;2022-12-18T14:43:34;0.00;99.90
23717;DHT22;22094;52.130;5.598;2022-12-18T14:46:02;0.10;99.90
23717;DHT22;22094;52.130;5.598;2022-12-18T14:48:42;0.10;99.90
23717;DHT22;22094;52.130;5.598;2022-12-18T14:51:22;0.20;99.90
23717;DHT22;22094;52.130;5.598;2022-12-18T14:54:14;0.00;99.90
23717;DHT22;22094;52.130;5.598;2022-12-18T14:56:37;0.00;99.90
23717;DHT22;22094;52.130;5.598;2022-12-18T14:59:23;0.00;99.90
23717;DHT22;22094;52.130;5.598;2022-12-18T15:07:19;0.00;99.90
23717;DHT22;22094;52.130;5.598;2022-12-18T15:10:15;0.00;99.90
23717;DHT22;22094;52.130;5.598;2022-12-18T15:18:00;0.00;99.90
23717;DHT22;22094;52.130;5.598;2022-12-18T15:20:31;0.00;99.90
23717;DHT22;22094;52.130;5.598;2022-12-18T15:22:57;-0.10;99.90
23717;DHT22;22094;52.130;5.598;2022-12-18T15:25:35;-0.10;99.90
23717;DHT22;22094;52.130;5.598;2022-12-18T15:28:22;-0.10;99.90
23717;DHT22;22094;52.130;5.598;2022-12-18T15:33:41;-0.10;99.90
23717;DHT22;22094;52.130;5.598;2022-12-18T15:36:14;-0.20;99.90
23717;DHT22;22094;52.130;5.598;2022-12-18T15:38:40;-0.10;99.90
23717;DHT22;22094;52.130;5.598;2022-12-18T15:41:05;-0.20;99.90
23717;DHT22;22094;52.130;5.598;2022-12-18T15:43:31;-0.20;99.90
23717;DHT22;22094;52.130;5.598;2022-12-18T15:46:13;-0.20;99.90
23717;DHT22;22094;52.130;5.598;2022-12-18T15:48:41;-0.10;99.90
23717;DHT22;22094;52.130;5.598;2022-12-18T15:51:33;-0.20;99.90
23717;DHT22;22094;52.130;5.598;2022-12-18T15:54:01;-0.20;99.90
23717;DHT22;22094;52.130;5.598;2022-12-18T15:56:29;-0.20;99.90
23717;DHT22;22094;52.130;5.598;2022-12-18T15:59:20;-0.20;99.90
23717;DHT22;22094;52.130;5.598;2022-12-18T16:01:47;-0.20;99.90
23717;DHT22;22094;52.130;5.598;2022-12-18T16:04:14;-0.20;99.90
23717;DHT22;22094;52.130;5.598;2022-12-18T16:06:40;-0.20;99.90
23717;DHT22;22094;52.130;5.598;2022-12-18T16:09:07;-0.20;99.90
23717;DHT22;22094;52.130;5.598;2022-12-18T16:11:34;-0.20;99.90
23717;DHT22;22094;52.130;5.598;2022-12-18T16:16:39;-0.10;99.90
23717;DHT22;22094;52.130;5.598;2022-12-18T16:19:05;-0.20;99.90
23717;DHT22;22094;52.130;5.598;2022-12-18T16:21:30;-0.20;99.90
23717;DHT22;22094;52.130;5.598;2022-12-18T16:23:56;-0.20;99.90
23717;DHT22;22094;52.130;5.598;2022-12-18T16:26:21;-0.10;99.90
23717;DHT22;22094;52.130;5.598;2022-12-18T16:28:47;-0.20;99.90
23717;DHT22;22094;52.130;5.598;2022-12-18T16:31:12;-0.20;99.90
23717;DHT22;22094;52.130;5.598;2022-12-18T16:33:38;-0.20;99.90
23717;DHT22;22094;52.130;5.598;2022-12-18T16:36:04;-0.30;99.90
23717;DHT22;22094;52.130;5.598;2022-12-18T16:38:29;-0.20;99.90
23717;DHT22;22094;52.130;5.598;2022-12-18T16:40:55;-0.20;99.90
23717;DHT22;22094;52.130;5.598;2022-12-18T16:43:39;-0.20;99.90
23717;DHT22;22094;52.130;5.598;2022-12-18T16:46:05;-0.20;99.90
23717;DHT22;22094;52.130;5.598;2022-12-18T16:48:30;-0.20;99.90
23717;DHT22;22094;52.130;5.598;2022-12-18T16:51:01;-0.20;99.90
23717;DHT22;22094;52.130;5.598;2022-12-18T16:53:27;-0.20;99.90
23717;DHT22;22094;52.130;5.598;2022-12-18T16:55:56;-0.20;99.90
23717;DHT22;22094;52.130;5.598;2022-12-18T16:58:21;-0.10;99.90
23717;DHT22;22094;52.130;5.598;2022-12-18T17:00:47;-0.20;99.90
23717;DHT22;22094;52.130;5.598;2022-12-18T17:03:12;-0.10;99.90
23717;DHT22;22094;52.130;5.598;2022-12-18T17:05:38;-0.10;99.90
23717;DHT22;22094;52.130;5.598;2022-12-18T17:08:04;-0.10;99.90
23717;DHT22;22094;52.130;5.598;2022-12-18T17:10:30;-0.10;99.90
23717;DHT22;22094;52.130;5.598;2022-12-18T17:12:56;-0.10;99.90
23717;DHT22;22094;52.130;5.598;2022-12-18T17:15:21;-0.10;99.90
23717;DHT22;22094;52.130;5.598;2022-12-18T17:17:47;-0.20;99.90
23717;DHT22;22094;52.130;5.598;2022-12-18T17:20:12;-0.10;99.90
23717;DHT22;22094;52.130;5.598;2022-12-18T17:22:38;0.00;99.90
23717;DHT22;22094;52.130;5.598;2022-12-18T17:25:04;-0.10;99.90
23717;DHT22;22094;52.130;5.598;2022-12-18T17:27:30;0.00;99.90
23717;DHT22;22094;52.130;5.598;2022-12-18T17:29:55;0.30;99.90
23717;DHT22;22094;52.130;5.598;2022-12-18T17:32:21;0.20;99.90
23717;DHT22;22094;52.130;5.598;2022-12-18T17:34:46;0.10;99.90
23717;DHT22;22094;52.130;5.598;2022-12-18T17:37:12;0.10;99.90
23717;DHT22;22094;52.130;5.598;2022-12-18T17:39:38;0.00;99.90
23717;DHT22;22094;52.130;5.598;2022-12-18T17:42:03;0.00;99.90
23717;DHT22;22094;52.130;5.598;2022-12-18T17:44:29;0.00;99.90
23717;DHT22;22094;52.130;5.598;2022-12-18T17:46:55;-0.10;99.90
23717;DHT22;22094;52.130;5.598;2022-12-18T17:49:20;-0.10;99.90
23717;DHT22;22094;52.130;5.598;2022-12-18T17:51:46;0.00;99.90
23717;DHT22;22094;52.130;5.598;2022-12-18T17:54:12;0.00;99.90
23717;DHT22;22094;52.130;5.598;2022-12-18T17:56:38;0.00;99.90
23717;DHT22;22094;52.130;5.598;2022-12-18T17:59:04;0.00;99.90
23717;DHT22;22094;52.130;5.598;2022-12-18T18:01:31;0.00;99.90
23717;DHT22;22094;52.130;5.598;2022-12-18T18:03:56;0.00;99.90
23717;DHT22;22094;52.130;5.598;2022-12-18T18:06:24;0.00;99.90
23717;DHT22;22094;52.130;5.598;2022-12-18T18:08:50;0.00;99.90